sensor_id;sensor_type;location;lat;lon;timestamp;pressure;altitude;pressure_sealevel;temperature;humidity
15694;BME280;7947;48.834;9.132;2024-01-25T00:01:11;99364.50;;;10.86;74.05
15694;BME280;7947;48.834;9.132;2024-01-25T00:04:15;99356.47;;;10.86;74.93
15694;BME280;7947;48.834;9.132;2024-01-25T00:07:18;99355.88;;;10.84;75.17
15694;BME280;7947;48.834;9.132;2024-01-25T00:10:21;99344.69;;;10.71;74.98
15694;BME280;7947;48.834;9.132;2024-01-25T00:13:24;99347.78;;;10.79;75.15
15694;BME280;7947;48.834;9.132;2024-01-25T00:16:27;99349.31;;;10.75;75.32
15694;BME280;7947;48.834;9.132;2024-01-25T00:19:34;99346.13;;;10.78;75.46
15694;BME280;7947;48.834;9.132;2024-01-25T00:22:37;99349.47;;;10.85;74.72
15694;BME280;7947;48.834;9.132;2024-01-25T00:25:40;99338.09;;;10.78;75.67
15694;BME280;7947;48.834;9.132;2024-01-25T00:28:43;99331.25;;;10.87;75.39
15694;BME280;7947;48.834;9.132;2024-01-25T00:31:46;99341.34;;;10.80;76.15
15694;BME280;7947;48.834;9.132;2024-01-25T00:34:51;99337.09;;;10.84;75.76
15694;BME280;7947;48.834;9.132;2024-01-25T00:37:54;99332.56;;;10.85;76.27
15694;BME280;7947;48.834;9.132;2024-01-25T00:40:58;99338.59;;;10.75;76.25
15694;BME280;7947;48.834;9.132;2024-01-25T00:44:01;99331.81;;;10.89;77.03
15694;BME280;7947;48.834;9.132;2024-01-25T00:47:04;99339.88;;;10.89;76.16
15694;BME280;7947;48.834;9.132;2024-01-25T00:50:10;99337.66;;;10.86;77.28
15694;BME280;7947;48.834;9.132;2024-01-25T00:53:14;99337.94;;;10.85;77.01
15694;BME280;7947;48.834;9.132;2024-01-25T00:56:17;99332.63;;;10.90;77.53
15694;BME280;7947;48.834;9.132;2024-01-25T00:59:21;99342.97;;;10.81;77.51
15694;BME280;7947;48.834;9.132;2024-01-25T01:02:24;99337.34;;;10.83;78.01
15694;BME280;7947;48.834;9.132;2024-01-25T01:05:34;99338.81;;;10.90;77.47
15694;BME280;7947;48.834;9.132;2024-01-25T01:08:38;99339.69;;;10.96;77.96
15694;BME280;7947;48.834;9.132;2024-01-25T01:11:40;99338.06;;;10.95;77.86
15694;BME280;7947;48.834;9.132;2024-01-25T01:14:44;99333.59;;;11.01;77.71
15694;BME280;7947;48.834;9.132;2024-01-25T01:17:47;99333.75;;;10.94;78.15
15694;BME280;7947;48.834;9.132;2024-01-25T01:20:52;99328.13;;;10.96;78.11
15694;BME280;7947;48.834;9.132;2024-01-25T01:23:55;99327.59;;;10.94;77.43
15694;BME280;7947;48.834;9.132;2024-01-25T01:26:58;99326.69;;;10.88;77.99
15694;BME280;7947;48.834;9.132;2024-01-25T01:30:01;99332.31;;;10.86;78.21
15694;BME280;7947;48.834;9.132;2024-01-25T01:33:04;99331.72;;;11.01;77.07
15694;BME280;7947;48.834;9.132;2024-01-25T01:36:08;99328.94;;;10.96;76.67
15694;BME280;7947;48.834;9.132;2024-01-25T01:39:11;99332.06;;;10.88;77.04
15694;BME280;7947;48.834;9.132;2024-01-25T01:42:14;99335.56;;;10.88;77.02
15694;BME280;7947;48.834;9.132;2024-01-25T01:45:17;99329.50;;;10.98;77.01
15694;BME280;7947;48.834;9.132;2024-01-25T01:48:20;99322.44;;;10.92;77.18
15694;BME280;7947;48.834;9.132;2024-01-25T01:51:24;99332.72;;;10.95;77.01
15694;BME280;7947;48.834;9.132;2024-01-25T01:54:28;99324.09;;;10.93;76.72
15694;BME280;7947;48.834;9.132;2024-01-25T01:57:31;99335.97;;;10.97;76.35
15694;BME280;7947;48.834;9.132;2024-01-25T02:00:36;99329.78;;;10.97;76.27
15694;BME280;7947;48.834;9.132;2024-01-25T02:03:40;99327.09;;;10.97;76.02
15694;BME280;7947;48.834;9.132;2024-01-25T02:06:44;99323.84;;;10.95;75.69
15694;BME280;7947;48.834;9.132;2024-01-25T02:09:48;99313.59;;;10.92;75.76
15694;BME280;7947;48.834;9.132;2024-01-25T02:12:51;99307.72;;;10.95;75.44
15694;BME280;7947;48.834;9.132;2024-01-25T02:15:54;99309.78;;;10.87;75.18
15694;BME280;7947;48.834;9.132;2024-01-25T02:18:57;99322.00;;;10.78;75.90
15694;BME280;7947;48.834;9.132;2024-01-25T02:22:04;99310.94;;;10.92;75.08
15694;BME280;7947;48.834;9.132;2024-01-25T02:25:09;99321.00;;;10.84;75.28
15694;BME280;7947;48.834;9.132;2024-01-25T02:28:13;99309.13;;;10.80;75.12
15694;BME280;7947;48.834;9.132;2024-01-25T02:31:16;99310.53;;;10.83;75.35
15694;BME280;7947;48.834;9.132;2024-01-25T02:34:19;99321.00;;;10.84;75.06
15694;BME280;7947;48.834;9.132;2024-01-25T02:37:22;99319.88;;;10.80;75.49
15694;BME280;7947;48.834;9.132;2024-01-25T02:40:26;99321.75;;;10.80;75.27
15694;BME280;7947;48.834;9.132;2024-01-25T02:43:29;99319.88;;;10.80;75.44
15694;BME280;7947;48.834;9.132;2024-01-25T02:46:32;99308.81;;;10.77;75.77
15694;BME280;7947;48.834;9.132;2024-01-25T02:49:35;99316.06;;;10.76;75.86
15694;BME280;7947;48.834;9.132;2024-01-25T02:52:39;99316.56;;;10.73;75.81
15694;BME280;7947;48.834;9.132;2024-01-25T02:55:43;99326.47;;;10.73;75.58
15694;BME280;7947;48.834;9.132;2024-01-25T02:58:46;99319.97;;;10.69;76.59
15694;BME280;7947;48.834;9.132;2024-01-25T03:01:49;99325.28;;;10.64;76.83
15694;BME280;7947;48.834;9.132;2024-01-25T03:04:52;99319.03;;;10.58;77.00
15694;BME280;7947;48.834;9.132;2024-01-25T03:07:55;99332.44;;;10.58;77.00
15694;BME280;7947;48.834;9.132;2024-01-25T03:10:59;99328.38;;;10.56;77.45
15694;BME280;7947;48.834;9.132;2024-01-25T03:14:05;99343.63;;;10.55;77.53
15694;BME280;7947;48.834;9.132;2024-01-25T03:17:08;99337.13;;;10.51;77.17
15694;BME280;7947;48.834;9.132;2024-01-25T03:20:10;99342.19;;;10.48;77.09
15694;BME280;7947;48.834;9.132;2024-01-25T03:23:14;99344.78;;;10.43;77.21
15694;BME280;7947;48.834;9.132;2024-01-25T03:26:18;99348.63;;;10.47;77.42
15694;BME280;7947;48.834;9.132;2024-01-25T03:29:21;99352.34;;;10.46;77.54
15694;BME280;7947;48.834;9.132;2024-01-25T03:32:23;99345.69;;;10.48;77.20
15694;BME280;7947;48.834;9.132;2024-01-25T03:35:26;99361.66;;;10.43;77.07
15694;BME280;7947;48.834;9.132;2024-01-25T03:38:30;99368.69;;;10.44;77.46
15694;BME280;7947;48.834;9.132;2024-01-25T03:41:34;99364.13;;;10.45;78.00
15694;BME280;7947;48.834;9.132;2024-01-25T03:44:37;99358.91;;;10.38;77.86
15694;BME280;7947;48.834;9.132;2024-01-25T03:47:39;99364.03;;;10.40;77.97
15694;BME280;7947;48.834;9.132;2024-01-25T03:50:42;99383.88;;;10.39;77.68
15694;BME280;7947;48.834;9.132;2024-01-25T03:53:46;99388.16;;;10.40;77.39
15694;BME280;7947;48.834;9.132;2024-01-25T03:56:51;99392.25;;;10.42;77.17
15694;BME280;7947;48.834;9.132;2024-01-25T03:59:54;99396.22;;;10.40;77.24
15694;BME280;7947;48.834;9.132;2024-01-25T04:02:57;99400.44;;;10.36;77.58
15694;BME280;7947;48.834;9.132;2024-01-25T04:06:00;99404.75;;;10.37;77.33
15694;BME280;7947;48.834;9.132;2024-01-25T04:09:03;99405.78;;;10.36;77.76
15694;BME280;7947;48.834;9.132;2024-01-25T04:12:08;99410.13;;;10.37;77.64
15694;BME280;7947;48.834;9.132;2024-01-25T04:15:11;99409.94;;;10.43;76.22
15694;BME280;7947;48.834;9.132;2024-01-25T04:18:14;99410.44;;;10.40;76.47
15694;BME280;7947;48.834;9.132;2024-01-25T04:21:17;99403.59;;;10.49;75.59
15694;BME280;7947;48.834;9.132;2024-01-25T04:24:20;99404.03;;;10.41;76.28
15694;BME280;7947;48.834;9.132;2024-01-25T04:27:24;99421.66;;;10.37;76.56
15694;BME280;7947;48.834;9.132;2024-01-25T04:30:26;99403.84;;;10.31;76.65
15694;BME280;7947;48.834;9.132;2024-01-25T04:33:29;99414.81;;;10.30;77.14
15694;BME280;7947;48.834;9.132;2024-01-25T04:36:32;99407.31;;;10.32;76.54
15694;BME280;7947;48.834;9.132;2024-01-25T04:39:35;99410.13;;;10.37;76.50
15694;BME280;7947;48.834;9.132;2024-01-25T04:42:40;99417.34;;;10.36;76.53
15694;BME280;7947;48.834;9.132;2024-01-25T04:45:43;99420.72;;;10.32;76.93
15694;BME280;7947;48.834;9.132;2024-01-25T04:48:46;99416.44;;;10.31;76.95
15694;BME280;7947;48.834;9.132;2024-01-25T04:51:50;99422.75;;;10.25;76.46
15694;BME280;7947;48.834;9.132;2024-01-25T04:54:53;99423.59;;;10.25;76.88
15694;BME280;7947;48.834;9.132;2024-01-25T04:57:57;99426.25;;;10.25;75.77
15694;BME280;7947;48.834;9.132;2024-01-25T05:01:00;99425.13;;;10.21;75.60
15694;BME280;7947;48.834;9.132;2024-01-25T05:04:03;99422.56;;;10.15;75.62
15694;BME280;7947;48.834;9.132;2024-01-25T05:07:07;99424.22;;;10.16;74.89
15694;BME280;7947;48.834;9.132;2024-01-25T05:10:10;99432.25;;;10.16;74.85
15694;BME280;7947;48.834;9.132;2024-01-25T05:13:15;99420.03;;;10.08;74.43
15694;BME280;7947;48.834;9.132;2024-01-25T05:16:18;99422.00;;;10.01;74.61
15694;BME280;7947;48.834;9.132;2024-01-25T05:19:21;99419.53;;;9.83;75.20
15694;BME280;7947;48.834;9.132;2024-01-25T05:22:24;99426.41;;;9.79;74.78
15694;BME280;7947;48.834;9.132;2024-01-25T05:25:27;99423.63;;;9.74;75.22
15694;BME280;7947;48.834;9.132;2024-01-25T05:28:32;99433.19;;;9.70;75.28
15694;BME280;7947;48.834;9.132;2024-01-25T05:31:35;99439.59;;;9.69;74.97
15694;BME280;7947;48.834;9.132;2024-01-25T05:34:38;99430.97;;;9.67;75.09
15694;BME280;7947;48.834;9.132;2024-01-25T05:37:41;99440.56;;;9.51;75.41
15694;BME280;7947;48.834;9.132;2024-01-25T05:40:44;99434.88;;;9.48;75.01
15694;BME280;7947;48.834;9.132;2024-01-25T05:43:48;99444.78;;;9.36;75.92
15694;BME280;7947;48.834;9.132;2024-01-25T05:46:51;99452.56;;;9.37;75.47
15694;BME280;7947;48.834;9.132;2024-01-25T05:49:54;99447.53;;;9.41;75.21
15694;BME280;7947;48.834;9.132;2024-01-25T05:52:57;99451.63;;;9.32;75.50
15694;BME280;7947;48.834;9.132;2024-01-25T05:56:00;99446.97;;;9.27;75.92
15694;BME280;7947;48.834;9.132;2024-01-25T05:59:07;99445.59;;;9.25;76.34
15694;BME280;7947;48.834;9.132;2024-01-25T06:02:10;99452.91;;;9.18;76.74
15694;BME280;7947;48.834;9.132;2024-01-25T06:05:13;99449.09;;;9.14;77.32
15694;BME280;7947;48.834;9.132;2024-01-25T06:08:16;99450.25;;;9.06;77.89
15694;BME280;7947;48.834;9.132;2024-01-25T06:11:19;99466.78;;;9.03;78.42
15694;BME280;7947;48.834;9.132;2024-01-25T06:14:23;99473.63;;;8.99;78.54
15694;BME280;7947;48.834;9.132;2024-01-25T06:17:26;99477.94;;;9.00;78.56
15694;BME280;7947;48.834;9.132;2024-01-25T06:20:29;99468.88;;;9.01;78.54
15694;BME280;7947;48.834;9.132;2024-01-25T06:23:32;99467.47;;;8.98;79.41
15694;BME280;7947;48.834;9.132;2024-01-25T06:26:35;99469.19;;;8.93;80.26
15694;BME280;7947;48.834;9.132;2024-01-25T06:29:39;99467.09;;;8.83;80.05
15694;BME280;7947;48.834;9.132;2024-01-25T06:32:42;99475.00;;;8.78;81.20
15694;BME280;7947;48.834;9.132;2024-01-25T06:35:45;99459.06;;;8.83;81.32
15694;BME280;7947;48.834;9.132;2024-01-25T06:38:48;99458.97;;;8.90;81.52
15694;BME280;7947;48.834;9.132;2024-01-25T06:41:51;99461.63;;;8.78;81.31
15694;BME280;7947;48.834;9.132;2024-01-25T06:44:55;99460.47;;;8.74;81.64
15694;BME280;7947;48.834;9.132;2024-01-25T06:47:58;99460.78;;;8.66;82.42
15694;BME280;7947;48.834;9.132;2024-01-25T06:51:01;99462.06;;;8.64;82.77
15694;BME280;7947;48.834;9.132;2024-01-25T06:54:04;99483.69;;;8.62;82.65
15694;BME280;7947;48.834;9.132;2024-01-25T06:57:07;99487.84;;;8.58;82.43
15694;BME280;7947;48.834;9.132;2024-01-25T07:00:12;99496.22;;;8.62;82.88
15694;BME280;7947;48.834;9.132;2024-01-25T07:03:17;99496.97;;;8.69;83.18
15694;BME280;7947;48.834;9.132;2024-01-25T07:06:20;99488.72;;;8.70;83.21
15694;BME280;7947;48.834;9.132;2024-01-25T07:09:23;99493.59;;;8.73;83.03
15694;BME280;7947;48.834;9.132;2024-01-25T07:12:26;99499.16;;;8.72;83.11
15694;BME280;7947;48.834;9.132;2024-01-25T07:15:31;99493.16;;;8.76;82.60
15694;BME280;7947;48.834;9.132;2024-01-25T07:18:34;99498.72;;;8.75;82.97
15694;BME280;7947;48.834;9.132;2024-01-25T07:21:37;99503.25;;;8.74;82.34
15694;BME280;7947;48.834;9.132;2024-01-25T07:24:42;99514.31;;;8.78;82.26
15694;BME280;7947;48.834;9.132;2024-01-25T07:27:45;99509.81;;;8.90;80.80
15694;BME280;7947;48.834;9.132;2024-01-25T07:30:50;99510.59;;;8.90;80.06
15694;BME280;7947;48.834;9.132;2024-01-25T07:33:53;99510.97;;;8.94;80.06
15694;BME280;7947;48.834;9.132;2024-01-25T07:36:57;99510.75;;;8.95;79.84
15694;BME280;7947;48.834;9.132;2024-01-25T07:40:00;99510.38;;;8.92;79.41
15694;BME280;7947;48.834;9.132;2024-01-25T07:43:03;99510.25;;;8.87;79.83
15694;BME280;7947;48.834;9.132;2024-01-25T07:46:07;99520.25;;;8.80;80.46
15694;BME280;7947;48.834;9.132;2024-01-25T07:49:11;99522.13;;;8.91;80.64
15694;BME280;7947;48.834;9.132;2024-01-25T07:52:14;99524.00;;;9.02;80.65
15694;BME280;7947;48.834;9.132;2024-01-25T07:55:17;99522.16;;;9.14;80.21
15694;BME280;7947;48.834;9.132;2024-01-25T07:58:20;99523.44;;;9.12;79.97
15694;BME280;7947;48.834;9.132;2024-01-25T08:01:25;99526.59;;;9.20;80.27
15694;BME280;7947;48.834;9.132;2024-01-25T08:04:28;99512.88;;;9.28;80.13
15694;BME280;7947;48.834;9.132;2024-01-25T08:07:31;99505.31;;;9.37;79.09
15694;BME280;7947;48.834;9.132;2024-01-25T08:10:35;99492.50;;;9.39;79.13
15694;BME280;7947;48.834;9.132;2024-01-25T08:13:37;99505.75;;;9.45;78.33
15694;BME280;7947;48.834;9.132;2024-01-25T08:16:42;99506.47;;;9.52;78.49
15694;BME280;7947;48.834;9.132;2024-01-25T08:19:45;99498.78;;;9.56;78.34
15694;BME280;7947;48.834;9.132;2024-01-25T08:22:52;99507.50;;;9.63;78.04
15694;BME280;7947;48.834;9.132;2024-01-25T08:25:55;99505.03;;;9.73;77.35
15694;BME280;7947;48.834;9.132;2024-01-25T08:28:58;99503.75;;;9.75;76.80
15694;BME280;7947;48.834;9.132;2024-01-25T08:32:04;99497.56;;;9.86;76.83
15694;BME280;7947;48.834;9.132;2024-01-25T08:35:07;99494.06;;;9.86;76.49
15694;BME280;7947;48.834;9.132;2024-01-25T08:38:10;99506.41;;;9.87;76.10
15694;BME280;7947;48.834;9.132;2024-01-25T08:41:14;99512.56;;;9.87;76.52
15694;BME280;7947;48.834;9.132;2024-01-25T08:44:18;99512.69;;;9.92;75.76
15694;BME280;7947;48.834;9.132;2024-01-25T08:47:22;99533.41;;;9.97;76.30
15694;BME280;7947;48.834;9.132;2024-01-25T08:50:25;99540.28;;;9.93;76.24
15694;BME280;7947;48.834;9.132;2024-01-25T08:53:28;99540.41;;;9.98;75.96
15694;BME280;7947;48.834;9.132;2024-01-25T08:56:31;99543.19;;;10.03;75.84
15694;BME280;7947;48.834;9.132;2024-01-25T08:59:35;99546.78;;;10.09;75.43
15694;BME280;7947;48.834;9.132;2024-01-25T09:02:40;99551.09;;;10.21;74.42
15694;BME280;7947;48.834;9.132;2024-01-25T09:05:44;99549.69;;;10.30;73.79
15694;BME280;7947;48.834;9.132;2024-01-25T09:08:47;99553.63;;;10.39;72.96
15694;BME280;7947;48.834;9.132;2024-01-25T09:11:51;99554.91;;;10.37;73.32
15694;BME280;7947;48.834;9.132;2024-01-25T09:14:54;99565.47;;;10.43;72.74
15694;BME280;7947;48.834;9.132;2024-01-25T09:17:58;99560.47;;;10.47;73.35
15694;BME280;7947;48.834;9.132;2024-01-25T09:21:01;99559.13;;;10.61;71.72
15694;BME280;7947;48.834;9.132;2024-01-25T09:24:05;99558.31;;;10.60;72.13
15694;BME280;7947;48.834;9.132;2024-01-25T09:27:08;99573.22;;;10.68;71.47
15694;BME280;7947;48.834;9.132;2024-01-25T09:30:11;99566.66;;;10.75;71.10
15694;BME280;7947;48.834;9.132;2024-01-25T09:33:16;99572.22;;;10.85;70.99
15694;BME280;7947;48.834;9.132;2024-01-25T09:36:20;99569.53;;;11.02;70.45
15694;BME280;7947;48.834;9.132;2024-01-25T09:39:23;99574.28;;;11.12;69.57
15694;BME280;7947;48.834;9.132;2024-01-25T09:42:26;99580.13;;;11.25;70.16
15694;BME280;7947;48.834;9.132;2024-01-25T09:45:30;99581.28;;;11.29;68.57
15694;BME280;7947;48.834;9.132;2024-01-25T09:48:35;99589.41;;;11.34;68.16
15694;BME280;7947;48.834;9.132;2024-01-25T09:51:40;99595.28;;;11.31;67.46
15694;BME280;7947;48.834;9.132;2024-01-25T09:54:44;99583.72;;;11.31;67.29
15694;BME280;7947;48.834;9.132;2024-01-25T09:57:49;99594.38;;;11.26;68.96
15694;BME280;7947;48.834;9.132;2024-01-25T10:00:56;99593.31;;;11.27;69.28
15694;BME280;7947;48.834;9.132;2024-01-25T10:04:07;99600.66;;;11.31;68.58
15694;BME280;7947;48.834;9.132;2024-01-25T10:07:11;99600.97;;;11.35;68.20
15694;BME280;7947;48.834;9.132;2024-01-25T10:10:15;99604.91;;;11.44;68.61
15694;BME280;7947;48.834;9.132;2024-01-25T10:13:19;99603.66;;;11.35;68.07
15694;BME280;7947;48.834;9.132;2024-01-25T10:16:22;99599.19;;;11.40;66.84
15694;BME280;7947;48.834;9.132;2024-01-25T10:19:27;99597.25;;;11.36;66.64
15694;BME280;7947;48.834;9.132;2024-01-25T10:22:31;99585.03;;;11.45;66.64
15694;BME280;7947;48.834;9.132;2024-01-25T10:25:36;99584.06;;;11.51;65.02
15694;BME280;7947;48.834;9.132;2024-01-25T10:28:41;99576.47;;;11.48;65.84
15694;BME280;7947;48.834;9.132;2024-01-25T10:31:45;99578.19;;;11.54;65.65
15694;BME280;7947;48.834;9.132;2024-01-25T10:34:51;99575.66;;;11.64;66.65
15694;BME280;7947;48.834;9.132;2024-01-25T10:37:55;99573.88;;;11.86;67.46
15694;BME280;7947;48.834;9.132;2024-01-25T10:41:00;99571.44;;;12.06;66.81
15694;BME280;7947;48.834;9.132;2024-01-25T10:44:04;99570.84;;;12.21;65.79
15694;BME280;7947;48.834;9.132;2024-01-25T10:47:09;99560.41;;;12.73;63.57
15694;BME280;7947;48.834;9.132;2024-01-25T10:50:13;99552.41;;;13.04;62.44
15694;BME280;7947;48.834;9.132;2024-01-25T10:53:18;99558.53;;;13.00;61.72
15694;BME280;7947;48.834;9.132;2024-01-25T10:56:21;99556.16;;;12.77;62.37
15694;BME280;7947;48.834;9.132;2024-01-25T10:59:25;99544.19;;;13.52;59.27
15694;BME280;7947;48.834;9.132;2024-01-25T11:02:29;99538.59;;;14.88;55.53
15694;BME280;7947;48.834;9.132;2024-01-25T11:05:34;99533.75;;;15.60;52.06
15694;BME280;7947;48.834;9.132;2024-01-25T11:08:37;99531.34;;;15.54;51.37
15694;BME280;7947;48.834;9.132;2024-01-25T11:11:43;99529.69;;;14.97;52.33
15694;BME280;7947;48.834;9.132;2024-01-25T11:14:53;99522.38;;;14.73;53.24
15694;BME280;7947;48.834;9.132;2024-01-25T11:17:57;99518.53;;;14.48;54.28
15694;BME280;7947;48.834;9.132;2024-01-25T11:21:04;99515.00;;;14.43;54.38
15694;BME280;7947;48.834;9.132;2024-01-25T11:24:12;99510.22;;;15.00;51.60
15694;BME280;7947;48.834;9.132;2024-01-25T11:27:15;99500.00;;;15.07;51.02
15694;BME280;7947;48.834;9.132;2024-01-25T11:30:18;99499.97;;;15.27;50.10
15694;BME280;7947;48.834;9.132;2024-01-25T11:33:22;99494.03;;;15.56;50.70
15694;BME280;7947;48.834;9.132;2024-01-25T11:36:26;99478.38;;;15.43;50.77
15694;BME280;7947;48.834;9.132;2024-01-25T11:39:29;99469.66;;;15.61;50.52
15694;BME280;7947;48.834;9.132;2024-01-25T11:42:32;99480.31;;;16.11;50.85
15694;BME280;7947;48.834;9.132;2024-01-25T11:45:35;99470.47;;;16.30;50.47
15694;BME280;7947;48.834;9.132;2024-01-25T11:48:44;99462.84;;;16.42;49.88
15694;BME280;7947;48.834;9.132;2024-01-25T11:51:49;99470.66;;;16.92;47.27
15694;BME280;7947;48.834;9.132;2024-01-25T11:54:51;99470.69;;;16.87;47.19
15694;BME280;7947;48.834;9.132;2024-01-25T11:57:54;99465.06;;;17.12;44.31
15694;BME280;7947;48.834;9.132;2024-01-25T12:00:58;99466.03;;;16.93;44.98
15694;BME280;7947;48.834;9.132;2024-01-25T12:04:02;99463.06;;;17.80;43.49
15694;BME280;7947;48.834;9.132;2024-01-25T12:07:07;99469.34;;;18.79;41.76
15694;BME280;7947;48.834;9.132;2024-01-25T12:10:15;99465.94;;;19.38;39.84
15694;BME280;7947;48.834;9.132;2024-01-25T12:13:19;99454.50;;;19.82;40.26
15694;BME280;7947;48.834;9.132;2024-01-25T12:16:22;99451.16;;;20.39;39.41
15694;BME280;7947;48.834;9.132;2024-01-25T12:19:25;99451.69;;;20.63;38.57
15694;BME280;7947;48.834;9.132;2024-01-25T12:22:30;99445.25;;;20.59;38.78
15694;BME280;7947;48.834;9.132;2024-01-25T12:25:39;99445.47;;;20.49;39.09
15694;BME280;7947;48.834;9.132;2024-01-25T12:28:42;99437.53;;;20.39;38.65
15694;BME280;7947;48.834;9.132;2024-01-25T12:31:45;99431.47;;;20.64;38.72
15694;BME280;7947;48.834;9.132;2024-01-25T12:34:54;99426.53;;;20.66;38.04
15694;BME280;7947;48.834;9.132;2024-01-25T12:37:59;99429.13;;;20.93;37.80
15694;BME280;7947;48.834;9.132;2024-01-25T12:41:04;99429.63;;;20.95;37.03
15694;BME280;7947;48.834;9.132;2024-01-25T12:44:07;99425.06;;;21.04;37.23
15694;BME280;7947;48.834;9.132;2024-01-25T12:47:10;99428.59;;;21.05;36.94
15694;BME280;7947;48.834;9.132;2024-01-25T12:50:14;99419.84;;;20.72;37.56
15694;BME280;7947;48.834;9.132;2024-01-25T12:53:18;99414.25;;;20.77;37.79
15694;BME280;7947;48.834;9.132;2024-01-25T12:56:21;99407.03;;;20.73;37.74
15694;BME280;7947;48.834;9.132;2024-01-25T12:59:24;99402.41;;;20.37;38.70
15694;BME280;7947;48.834;9.132;2024-01-25T13:02:27;99406.88;;;20.06;38.97
15694;BME280;7947;48.834;9.132;2024-01-25T13:05:30;99406.31;;;19.55;40.18
15694;BME280;7947;48.834;9.132;2024-01-25T13:08:37;99395.91;;;18.98;40.70
15694;BME280;7947;48.834;9.132;2024-01-25T13:11:40;99388.50;;;18.34;42.25
15694;BME280;7947;48.834;9.132;2024-01-25T13:14:43;99395.44;;;17.60;43.54
15694;BME280;7947;48.834;9.132;2024-01-25T13:17:46;99382.13;;;17.11;45.09
15694;BME280;7947;48.834;9.132;2024-01-25T13:20:49;99377.59;;;16.73;45.69
15694;BME280;7947;48.834;9.132;2024-01-25T13:23:53;99372.66;;;16.42;46.81
15694;BME280;7947;48.834;9.132;2024-01-25T13:26:56;99380.38;;;16.24;47.31
15694;BME280;7947;48.834;9.132;2024-01-25T13:29:59;99369.06;;;16.12;47.98
15694;BME280;7947;48.834;9.132;2024-01-25T13:33:03;99355.63;;;16.02;48.33
15694;BME280;7947;48.834;9.132;2024-01-25T13:36:07;99357.06;;;15.85;49.28
15694;BME280;7947;48.834;9.132;2024-01-25T13:39:13;99353.63;;;15.69;49.04
15694;BME280;7947;48.834;9.132;2024-01-25T13:42:16;99366.41;;;15.54;49.15
15694;BME280;7947;48.834;9.132;2024-01-25T13:45:19;99361.03;;;15.44;48.95
15694;BME280;7947;48.834;9.132;2024-01-25T13:48:22;99355.66;;;15.23;49.97
15694;BME280;7947;48.834;9.132;2024-01-25T13:51:25;99363.81;;;15.03;50.70
15694;BME280;7947;48.834;9.132;2024-01-25T13:54:30;99368.16;;;14.89;50.82
15694;BME280;7947;48.834;9.132;2024-01-25T13:57:33;99363.59;;;14.75;51.66
15694;BME280;7947;48.834;9.132;2024-01-25T14:00:35;99370.59;;;14.66;52.09
15694;BME280;7947;48.834;9.132;2024-01-25T14:03:38;99357.38;;;14.54;51.77
15694;BME280;7947;48.834;9.132;2024-01-25T14:06:46;99358.72;;;14.46;52.64
15694;BME280;7947;48.834;9.132;2024-01-25T14:09:50;99350.09;;;14.44;52.79
15694;BME280;7947;48.834;9.132;2024-01-25T14:12:55;99363.06;;;14.37;53.59
15694;BME280;7947;48.834;9.132;2024-01-25T14:15:58;99356.03;;;14.31;54.24
15694;BME280;7947;48.834;9.132;2024-01-25T14:19:01;99343.91;;;14.34;54.32
15694;BME280;7947;48.834;9.132;2024-01-25T14:22:05;99340.09;;;14.35;54.32
15694;BME280;7947;48.834;9.132;2024-01-25T14:25:29;99336.31;;;14.31;53.88
15694;BME280;7947;48.834;9.132;2024-01-25T14:28:32;99333.56;;;14.21;54.31
15694;BME280;7947;48.834;9.132;2024-01-25T14:31:36;99335.72;;;14.04;55.33
15694;BME280;7947;48.834;9.132;2024-01-25T14:34:39;99333.78;;;13.79;55.69
15694;BME280;7947;48.834;9.132;2024-01-25T14:37:42;99330.47;;;13.52;56.03
15694;BME280;7947;48.834;9.132;2024-01-25T14:40:47;99333.59;;;13.24;57.27
15694;BME280;7947;48.834;9.132;2024-01-25T14:43:59;99330.84;;;13.14;58.09
15694;BME280;7947;48.834;9.132;2024-01-25T14:47:03;99330.72;;;12.99;59.13
15694;BME280;7947;48.834;9.132;2024-01-25T14:50:06;99335.50;;;12.87;59.37
15694;BME280;7947;48.834;9.132;2024-01-25T14:53:09;99322.22;;;12.75;59.89
15694;BME280;7947;48.834;9.132;2024-01-25T14:56:14;99315.97;;;12.64;59.68
15694;BME280;7947;48.834;9.132;2024-01-25T14:59:17;99325.06;;;12.58;60.28
15694;BME280;7947;48.834;9.132;2024-01-25T15:02:20;99323.44;;;12.57;59.92
15694;BME280;7947;48.834;9.132;2024-01-25T15:05:23;99321.50;;;12.48;60.82
15694;BME280;7947;48.834;9.132;2024-01-25T15:08:26;99324.66;;;12.40;61.62
15694;BME280;7947;48.834;9.132;2024-01-25T15:11:30;99318.94;;;12.31;62.13
15694;BME280;7947;48.834;9.132;2024-01-25T15:14:33;99322.16;;;12.28;62.54
15694;BME280;7947;48.834;9.132;2024-01-25T15:17:36;99324.53;;;12.25;62.39
15694;BME280;7947;48.834;9.132;2024-01-25T15:20:39;99325.09;;;12.27;63.73
15694;BME280;7947;48.834;9.132;2024-01-25T15:23:42;99319.91;;;12.20;63.14
15694;BME280;7947;48.834;9.132;2024-01-25T15:26:46;99319.06;;;12.15;63.30
15694;BME280;7947;48.834;9.132;2024-01-25T15:29:49;99318.22;;;12.09;63.59
15694;BME280;7947;48.834;9.132;2024-01-25T15:32:52;99327.56;;;12.02;63.09
15694;BME280;7947;48.834;9.132;2024-01-25T15:35:55;99330.44;;;11.95;63.97
15694;BME280;7947;48.834;9.132;2024-01-25T15:38:58;99325.63;;;11.97;64.33
15694;BME280;7947;48.834;9.132;2024-01-25T15:42:03;99321.06;;;11.98;63.66
15694;BME280;7947;48.834;9.132;2024-01-25T15:45:06;99316.19;;;11.95;64.21
15694;BME280;7947;48.834;9.132;2024-01-25T15:48:10;99310.19;;;11.88;64.18
15694;BME280;7947;48.834;9.132;2024-01-25T15:51:13;99313.03;;;11.76;64.45
15694;BME280;7947;48.834;9.132;2024-01-25T15:54:15;99320.53;;;11.74;64.66
15694;BME280;7947;48.834;9.132;2024-01-25T15:57:20;99317.03;;;11.73;64.70
15694;BME280;7947;48.834;9.132;2024-01-25T16:00:23;99298.53;;;11.77;65.77
15694;BME280;7947;48.834;9.132;2024-01-25T16:03:26;99295.09;;;11.82;65.75
15694;BME280;7947;48.834;9.132;2024-01-25T16:06:28;99300.19;;;11.83;64.88
15694;BME280;7947;48.834;9.132;2024-01-25T16:09:31;99303.59;;;11.73;65.69
15694;BME280;7947;48.834;9.132;2024-01-25T16:12:35;99293.97;;;11.77;65.50
15694;BME280;7947;48.834;9.132;2024-01-25T16:15:38;99297.03;;;11.86;65.05
15694;BME280;7947;48.834;9.132;2024-01-25T16:18:41;99298.59;;;11.82;65.23
15694;BME280;7947;48.834;9.132;2024-01-25T16:21:44;99302.56;;;11.74;65.51
15694;BME280;7947;48.834;9.132;2024-01-25T16:24:47;99300.47;;;11.82;65.84
15694;BME280;7947;48.834;9.132;2024-01-25T16:27:51;99300.66;;;11.75;66.81